Terminal Aerodrome Forecast
Issued by NWS Wilmington, OH

Current Version | Previous Version | Graphics & Text | Print | Product List | Glossary On
Versions: 1 2 3 4 5 6 7 8 9 10 11 12 13 14 15 16 17 18 19 20 21
000
FTUS41 KILN 070500
TAFDAY
TAF
KDAY 070539Z 0706/0806 22010KT P6SM SCT250
     FM070900 22012KT P6SM BKN040
      TEMPO 0711/0713 BKN030
     FM071500 22015G24KT P6SM VCSH BKN035
      TEMPO 0718/0722 5SM -TSRA BKN030CB
     FM080000 22013KT P6SM VCSH BKN040=

USA.gov is the U.S. government's official web portal to all federal, state and local government web resources and services.